MUC weather

Munich Airport
Munich, Bavaria, Germany

Public forecast

Using degrees Celsius for public forecast. Weather courtesy of forecast.io.

METAR (pilot weather report)

Retrieved 2018/06/19 08:20 UTC (0 seconds ago):

EDDM 190820Z 25006KT 210V280 9999 FEW028 SCT065 20/13 Q1026 NOSIG

TAF (pilot weather forecast)

Retrieved 2018/06/19 06:27 UTC (2 hours ago):

TAF EDDM 190500Z 1906/2012 24003KT CAVOK BECMG 1908/1911 32005KT BECMG 1917/1919 VRB02KT BECMG 2006/2009 09005KT